sensor_id;sensor_type;location;lat;lon;timestamp;P1;durP1;ratioP1;P2;durP2;ratioP2
70715;SDS011;59053;50.832;12.882;2023-03-01T05:21:38;26.83;;;9.37;;
70715;SDS011;59053;50.832;12.882;2023-03-01T05:24:24;33.05;;;10.63;;
70715;SDS011;59053;50.832;12.882;2023-03-01T05:26:49;35.83;;;11.93;;
70715;SDS011;59053;50.832;12.882;2023-03-01T05:29:17;32.58;;;11.07;;
70715;SDS011;59053;50.832;12.882;2023-03-01T05:32:12;35.63;;;11.50;;
70715;SDS011;59053;50.832;12.882;2023-03-01T05:34:40;33.42;;;11.30;;
70715;SDS011;59053;50.832;12.882;2023-03-01T05:37:11;39.73;;;11.07;;
70715;SDS011;59053;50.832;12.882;2023-03-01T05:39:37;35.10;;;11.45;;
70715;SDS011;59053;50.832;12.882;2023-03-01T05:42:02;36.90;;;11.70;;
70715;SDS011;59053;50.832;12.882;2023-03-01T05:48:38;31.25;;;9.75;;
70715;SDS011;59053;50.832;12.882;2023-03-01T05:51:26;38.58;;;10.43;;
70715;SDS011;59053;50.832;12.882;2023-03-01T05:53:54;34.73;;;11.20;;
70715;SDS011;59053;50.832;12.882;2023-03-01T05:56:31;35.80;;;12.30;;
70715;SDS011;59053;50.832;12.882;2023-03-01T06:35:13;38.63;;;12.48;;
70715;SDS011;59053;50.832;12.882;2023-03-01T06:37:40;34.20;;;11.50;;
70715;SDS011;59053;50.832;12.882;2023-03-01T06:40:06;33.38;;;10.95;;
70715;SDS011;59053;50.832;12.882;2023-03-01T06:42:36;34.70;;;11.63;;
70715;SDS011;59053;50.832;12.882;2023-03-01T06:45:01;47.65;;;11.60;;
70715;SDS011;59053;50.832;12.882;2023-03-01T06:47:27;35.97;;;11.90;;
70715;SDS011;59053;50.832;12.882;2023-03-01T06:49:52;34.90;;;12.33;;
70715;SDS011;59053;50.832;12.882;2023-03-01T06:52:18;37.37;;;12.33;;
70715;SDS011;59053;50.832;12.882;2023-03-01T06:54:43;43.50;;;12.00;;
70715;SDS011;59053;50.832;12.882;2023-03-01T06:57:08;37.00;;;12.30;;
70715;SDS011;59053;50.832;12.882;2023-03-01T06:59:34;45.13;;;12.43;;
70715;SDS011;59053;50.832;12.882;2023-03-01T07:01:59;34.53;;;12.60;;
70715;SDS011;59053;50.832;12.882;2023-03-01T07:04:24;39.17;;;13.48;;
70715;SDS011;59053;50.832;12.882;2023-03-01T07:06:50;26.70;;;10.68;;
70715;SDS011;59053;50.832;12.882;2023-03-01T07:09:20;34.80;;;11.07;;
70715;SDS011;59053;50.832;12.882;2023-03-01T07:11:48;30.27;;;10.80;;
70715;SDS011;59053;50.832;12.882;2023-03-01T07:14:14;38.05;;;11.30;;
70715;SDS011;59053;50.832;12.882;2023-03-01T07:16:39;31.13;;;11.02;;
70715;SDS011;59053;50.832;12.882;2023-03-01T07:19:05;39.93;;;12.03;;
70715;SDS011;59053;50.832;12.882;2023-03-01T07:21:30;36.23;;;12.07;;
70715;SDS011;59053;50.832;12.882;2023-03-01T07:23:56;33.15;;;10.55;;
70715;SDS011;59053;50.832;12.882;2023-03-01T07:26:21;24.53;;;9.43;;
70715;SDS011;59053;50.832;12.882;2023-03-01T07:28:46;30.30;;;9.80;;
70715;SDS011;59053;50.832;12.882;2023-03-01T07:31:12;34.37;;;10.33;;
70715;SDS011;59053;50.832;12.882;2023-03-01T07:33:37;8.57;;;3.60;;
70715;SDS011;59053;50.832;12.882;2023-03-01T07:36:03;26.73;;;9.43;;
70715;SDS011;59053;50.832;12.882;2023-03-01T07:38:29;25.30;;;8.50;;
70715;SDS011;59053;50.832;12.882;2023-03-01T07:40:57;16.63;;;5.87;;
70715;SDS011;59053;50.832;12.882;2023-03-01T07:43:27;29.98;;;9.45;;
70715;SDS011;59053;50.832;12.882;2023-03-01T07:45:53;12.98;;;5.53;;
70715;SDS011;59053;50.832;12.882;2023-03-01T07:48:18;36.27;;;10.17;;
70715;SDS011;59053;50.832;12.882;2023-03-01T07:50:44;30.30;;;9.33;;
70715;SDS011;59053;50.832;12.882;2023-03-01T07:53:09;8.43;;;3.43;;
70715;SDS011;59053;50.832;12.882;2023-03-01T07:55:35;24.45;;;8.80;;
70715;SDS011;59053;50.832;12.882;2023-03-01T07:58:01;20.23;;;7.35;;
70715;SDS011;59053;50.832;12.882;2023-03-01T08:00:26;16.85;;;6.10;;
70715;SDS011;59053;50.832;12.882;2023-03-01T08:02:51;22.17;;;7.07;;
70715;SDS011;59053;50.832;12.882;2023-03-01T08:05:17;19.57;;;6.00;;
70715;SDS011;59053;50.832;12.882;2023-03-01T08:07:42;27.37;;;9.30;;
70715;SDS011;59053;50.832;12.882;2023-03-01T08:10:08;25.98;;;9.25;;
70715;SDS011;59053;50.832;12.882;2023-03-01T08:12:33;26.95;;;9.32;;
70715;SDS011;59053;50.832;12.882;2023-03-01T08:14:59;30.27;;;10.57;;
70715;SDS011;59053;50.832;12.882;2023-03-01T08:17:24;29.15;;;9.27;;
70715;SDS011;59053;50.832;12.882;2023-03-01T08:19:49;29.20;;;10.07;;
70715;SDS011;59053;50.832;12.882;2023-03-01T08:22:15;25.03;;;8.90;;
70715;SDS011;59053;50.832;12.882;2023-03-01T08:24:41;30.07;;;10.33;;
70715;SDS011;59053;50.832;12.882;2023-03-01T08:27:06;21.10;;;7.53;;
70715;SDS011;59053;50.832;12.882;2023-03-01T08:29:31;31.80;;;10.63;;
70715;SDS011;59053;50.832;12.882;2023-03-01T08:31:57;28.10;;;9.40;;
70715;SDS011;59053;50.832;12.882;2023-03-01T08:34:22;24.33;;;8.33;;
70715;SDS011;59053;50.832;12.882;2023-03-01T08:36:48;30.83;;;9.70;;
70715;SDS011;59053;50.832;12.882;2023-03-01T08:39:15;32.35;;;10.68;;
70715;SDS011;59053;50.832;12.882;2023-03-01T08:41:41;28.98;;;10.93;;
70715;SDS011;59053;50.832;12.882;2023-03-01T08:44:07;20.40;;;7.17;;
70715;SDS011;59053;50.832;12.882;2023-03-01T08:46:34;30.92;;;9.85;;
70715;SDS011;59053;50.832;12.882;2023-03-01T08:49:04;27.88;;;9.52;;
70715;SDS011;59053;50.832;12.882;2023-03-01T08:51:34;9.48;;;3.97;;
70715;SDS011;59053;50.832;12.882;2023-03-01T08:54:05;18.40;;;7.00;;
70715;SDS011;59053;50.832;12.882;2023-03-01T08:56:32;15.45;;;5.82;;
70715;SDS011;59053;50.832;12.882;2023-03-01T08:58:57;27.33;;;9.82;;
70715;SDS011;59053;50.832;12.882;2023-03-01T09:01:23;25.33;;;8.67;;
70715;SDS011;59053;50.832;12.882;2023-03-01T09:03:48;29.30;;;9.57;;
70715;SDS011;59053;50.832;12.882;2023-03-01T09:06:13;13.83;;;5.47;;
70715;SDS011;59053;50.832;12.882;2023-03-01T09:08:40;22.67;;;7.10;;
70715;SDS011;59053;50.832;12.882;2023-03-01T09:11:08;25.25;;;8.40;;
70715;SDS011;59053;50.832;12.882;2023-03-01T09:13:34;16.80;;;6.83;;
70715;SDS011;59053;50.832;12.882;2023-03-01T09:16:00;14.00;;;6.32;;
70715;SDS011;59053;50.832;12.882;2023-03-01T09:18:27;15.37;;;6.50;;
70715;SDS011;59053;50.832;12.882;2023-03-01T09:20:52;18.45;;;6.90;;
70715;SDS011;59053;50.832;12.882;2023-03-01T09:23:20;18.10;;;7.15;;
70715;SDS011;59053;50.832;12.882;2023-03-01T09:25:46;30.30;;;10.20;;
70715;SDS011;59053;50.832;12.882;2023-03-01T09:28:11;17.30;;;7.20;;
70715;SDS011;59053;50.832;12.882;2023-03-01T09:30:36;24.40;;;8.80;;
70715;SDS011;59053;50.832;12.882;2023-03-01T09:33:02;29.67;;;10.50;;
70715;SDS011;59053;50.832;12.882;2023-03-01T09:35:27;30.00;;;10.53;;
70715;SDS011;59053;50.832;12.882;2023-03-01T09:37:53;31.25;;;10.38;;
70715;SDS011;59053;50.832;12.882;2023-03-01T09:40:20;22.10;;;8.17;;
70715;SDS011;59053;50.832;12.882;2023-03-01T09:43:50;18.23;;;6.45;;
70715;SDS011;59053;50.832;12.882;2023-03-01T09:45:48;25.00;;;8.73;;
70715;SDS011;59053;50.832;12.882;2023-03-01T09:48:16;29.60;;;9.85;;
70715;SDS011;59053;50.832;12.882;2023-03-01T09:50:46;16.50;;;4.95;;
70715;SDS011;59053;50.832;12.882;2023-03-01T09:53:16;17.57;;;6.83;;
70715;SDS011;59053;50.832;12.882;2023-03-01T09:55:48;25.63;;;7.40;;
70715;SDS011;59053;50.832;12.882;2023-03-01T09:58:31;21.45;;;7.97;;
70715;SDS011;59053;50.832;12.882;2023-03-01T10:01:26;21.45;;;7.32;;
70715;SDS011;59053;50.832;12.882;2023-03-01T10:07:05;16.80;;;6.97;;
70715;SDS011;59053;50.832;12.882;2023-03-01T10:09:39;21.55;;;7.90;;
70715;SDS011;59053;50.832;12.882;2023-03-01T10:12:10;16.48;;;6.38;;
70715;SDS011;59053;50.832;12.882;2023-03-01T10:14:50;23.48;;;9.10;;
70715;SDS011;59053;50.832;12.882;2023-03-01T10:20:29;21.35;;;7.35;;
70715;SDS011;59053;50.832;12.882;2023-03-01T10:23:02;22.33;;;7.32;;
70715;SDS011;59053;50.832;12.882;2023-03-01T10:31:45;20.38;;;7.72;;
70715;SDS011;59053;50.832;12.882;2023-03-01T10:36:48;20.42;;;7.25;;
70715;SDS011;59053;50.832;12.882;2023-03-01T10:39:19;16.40;;;6.53;;
70715;SDS011;59053;50.832;12.882;2023-03-01T10:42:18;19.02;;;7.28;;
70715;SDS011;59053;50.832;12.882;2023-03-01T10:44:48;22.23;;;8.40;;
70715;SDS011;59053;50.832;12.882;2023-03-01T10:47:16;27.15;;;10.65;;
70715;SDS011;59053;50.832;12.882;2023-03-01T10:49:51;22.67;;;9.37;;
70715;SDS011;59053;50.832;12.882;2023-03-01T10:52:26;24.35;;;8.90;;
70715;SDS011;59053;50.832;12.882;2023-03-01T10:54:54;23.60;;;8.73;;
70715;SDS011;59053;50.832;12.882;2023-03-01T10:57:29;25.15;;;8.85;;
70715;SDS011;59053;50.832;12.882;2023-03-01T11:00:23;16.95;;;5.80;;
70715;SDS011;59053;50.832;12.882;2023-03-01T11:03:01;30.13;;;10.37;;
70715;SDS011;59053;50.832;12.882;2023-03-01T11:05:32;19.60;;;7.15;;
70715;SDS011;59053;50.832;12.882;2023-03-01T11:07:59;20.95;;;7.80;;
70715;SDS011;59053;50.832;12.882;2023-03-01T11:10:28;33.10;;;11.23;;
70715;SDS011;59053;50.832;12.882;2023-03-01T11:13:14;22.88;;;8.43;;
70715;SDS011;59053;50.832;12.882;2023-03-01T11:15:41;26.53;;;9.10;;
70715;SDS011;59053;50.832;12.882;2023-03-01T11:18:17;30.63;;;9.48;;
70715;SDS011;59053;50.832;12.882;2023-03-01T11:20:45;30.70;;;12.05;;
70715;SDS011;59053;50.832;12.882;2023-03-01T11:23:12;19.45;;;8.45;;
70715;SDS011;59053;50.832;12.882;2023-03-01T11:25:48;28.47;;;10.30;;
70715;SDS011;59053;50.832;12.882;2023-03-01T11:28:19;23.52;;;9.50;;
70715;SDS011;59053;50.832;12.882;2023-03-01T11:39:38;17.17;;;6.97;;
70715;SDS011;59053;50.832;12.882;2023-03-01T11:42:06;24.40;;;7.60;;
70715;SDS011;59053;50.832;12.882;2023-03-01T11:44:38;17.58;;;7.80;;
70715;SDS011;59053;50.832;12.882;2023-03-01T11:47:23;23.25;;;10.15;;
70715;SDS011;59053;50.832;12.882;2023-03-01T11:52:49;22.47;;;9.33;;
70715;SDS011;59053;50.832;12.882;2023-03-01T11:58:22;18.67;;;6.78;;
70715;SDS011;59053;50.832;12.882;2023-03-01T12:01:17;20.48;;;9.63;;
70715;SDS011;59053;50.832;12.882;2023-03-01T12:03:55;28.80;;;10.68;;
70715;SDS011;59053;50.832;12.882;2023-03-01T12:12:04;26.80;;;10.32;;
70715;SDS011;59053;50.832;12.882;2023-03-01T12:17:31;16.65;;;6.43;;
70715;SDS011;59053;50.832;12.882;2023-03-01T12:26:06;19.17;;;7.38;;
70715;SDS011;59053;50.832;12.882;2023-03-01T12:29:02;15.13;;;6.28;;
70715;SDS011;59053;50.832;12.882;2023-03-01T12:31:51;20.80;;;7.53;;
70715;SDS011;59053;50.832;12.882;2023-03-01T12:42:40;34.58;;;11.95;;
70715;SDS011;59053;50.832;12.882;2023-03-01T12:51:10;30.58;;;13.07;;
70715;SDS011;59053;50.832;12.882;2023-03-01T12:53:44;21.67;;;9.55;;
70715;SDS011;59053;50.832;12.882;2023-03-01T12:56:12;26.83;;;9.73;;
70715;SDS011;59053;50.832;12.882;2023-03-01T12:58:56;30.63;;;12.35;;
70715;SDS011;59053;50.832;12.882;2023-03-01T13:04:24;27.75;;;12.65;;
70715;SDS011;59053;50.832;12.882;2023-03-01T13:07:04;31.83;;;11.75;;
70715;SDS011;59053;50.832;12.882;2023-03-01T13:17:48;19.37;;;8.87;;
70715;SDS011;59053;50.832;12.882;2023-03-01T13:20:15;31.17;;;10.73;;
70715;SDS011;59053;50.832;12.882;2023-03-01T13:22:42;28.33;;;10.50;;
70715;SDS011;59053;50.832;12.882;2023-03-01T13:25:13;30.98;;;14.32;;
70715;SDS011;59053;50.832;12.882;2023-03-01T13:27:40;28.98;;;12.13;;
70715;SDS011;59053;50.832;12.882;2023-03-01T13:30:12;19.03;;;7.43;;
70715;SDS011;59053;50.832;12.882;2023-03-01T13:35:51;28.27;;;10.27;;
70715;SDS011;59053;50.832;12.882;2023-03-01T13:41:16;21.90;;;8.43;;
70715;SDS011;59053;50.832;12.882;2023-03-01T13:43:45;18.80;;;9.07;;
70715;SDS011;59053;50.832;12.882;2023-03-01T13:46:21;26.85;;;10.77;;
70715;SDS011;59053;50.832;12.882;2023-03-01T13:48:52;22.45;;;9.18;;
70715;SDS011;59053;50.832;12.882;2023-03-01T13:51:26;22.33;;;9.88;;
70715;SDS011;59053;50.832;12.882;2023-03-01T13:53:55;32.92;;;14.60;;
70715;SDS011;59053;50.832;12.882;2023-03-01T13:56:25;28.60;;;9.50;;
70715;SDS011;59053;50.832;12.882;2023-03-01T13:58:58;29.92;;;11.02;;
70715;SDS011;59053;50.832;12.882;2023-03-01T14:01:31;24.45;;;9.80;;
70715;SDS011;59053;50.832;12.882;2023-03-01T14:03:58;27.48;;;9.23;;
70715;SDS011;59053;50.832;12.882;2023-03-01T14:06:25;21.95;;;9.63;;
70715;SDS011;59053;50.832;12.882;2023-03-01T14:09:00;21.13;;;9.70;;
70715;SDS011;59053;50.832;12.882;2023-03-01T14:12:03;14.95;;;6.18;;
70715;SDS011;59053;50.832;12.882;2023-03-01T14:14:38;26.75;;;9.73;;
70715;SDS011;59053;50.832;12.882;2023-03-01T14:17:20;23.83;;;9.90;;
70715;SDS011;59053;50.832;12.882;2023-03-01T14:19:54;21.45;;;7.70;;
70715;SDS011;59053;50.832;12.882;2023-03-01T14:24:57;29.25;;;11.73;;
70715;SDS011;59053;50.832;12.882;2023-03-01T14:27:28;30.48;;;10.82;;
70715;SDS011;59053;50.832;12.882;2023-03-01T14:29:57;21.80;;;8.88;;
70715;SDS011;59053;50.832;12.882;2023-03-01T14:32:26;26.60;;;10.02;;
70715;SDS011;59053;50.832;12.882;2023-03-01T14:34:52;32.07;;;9.60;;
70715;SDS011;59053;50.832;12.882;2023-03-01T14:37:22;28.90;;;11.00;;
70715;SDS011;59053;50.832;12.882;2023-03-01T14:39:51;29.42;;;11.13;;
70715;SDS011;59053;50.832;12.882;2023-03-01T14:42:17;16.97;;;8.13;;
70715;SDS011;59053;50.832;12.882;2023-03-01T14:44:44;23.90;;;10.38;;
70715;SDS011;59053;50.832;12.882;2023-03-01T14:47:13;29.70;;;11.18;;
70715;SDS011;59053;50.832;12.882;2023-03-01T14:49:40;25.40;;;10.80;;
70715;SDS011;59053;50.832;12.882;2023-03-01T14:52:07;24.13;;;9.38;;
70715;SDS011;59053;50.832;12.882;2023-03-01T14:54:44;27.40;;;10.70;;
70715;SDS011;59053;50.832;12.882;2023-03-01T14:57:16;27.02;;;11.40;;
70715;SDS011;59053;50.832;12.882;2023-03-01T14:59:49;18.45;;;7.22;;
70715;SDS011;59053;50.832;12.882;2023-03-01T15:02:18;26.77;;;9.82;;
70715;SDS011;59053;50.832;12.882;2023-03-01T15:04:45;27.05;;;10.77;;
70715;SDS011;59053;50.832;12.882;2023-03-01T15:07:12;17.87;;;6.57;;
70715;SDS011;59053;50.832;12.882;2023-03-01T15:09:39;20.77;;;8.57;;
70715;SDS011;59053;50.832;12.882;2023-03-01T15:14:50;26.77;;;9.80;;
70715;SDS011;59053;50.832;12.882;2023-03-01T15:17:20;24.08;;;8.07;;
70715;SDS011;59053;50.832;12.882;2023-03-01T15:20:03;18.17;;;8.53;;
70715;SDS011;59053;50.832;12.882;2023-03-01T15:22:47;20.98;;;8.43;;
70715;SDS011;59053;50.832;12.882;2023-03-01T15:25:14;18.52;;;8.40;;
70715;SDS011;59053;50.832;12.882;2023-03-01T15:27:45;17.77;;;7.88;;
70715;SDS011;59053;50.832;12.882;2023-03-01T15:30:22;20.33;;;7.63;;
70715;SDS011;59053;50.832;12.882;2023-03-01T15:35:44;25.30;;;9.95;;
70715;SDS011;59053;50.832;12.882;2023-03-01T15:41:29;23.70;;;8.48;;
70715;SDS011;59053;50.832;12.882;2023-03-01T15:43:56;17.77;;;6.75;;
70715;SDS011;59053;50.832;12.882;2023-03-01T15:46:46;20.33;;;8.33;;
70715;SDS011;59053;50.832;12.882;2023-03-01T15:49:23;28.13;;;7.57;;
70715;SDS011;59053;50.832;12.882;2023-03-01T15:51:50;21.77;;;8.77;;
70715;SDS011;59053;50.832;12.882;2023-03-01T15:54:20;20.65;;;8.18;;
70715;SDS011;59053;50.832;12.882;2023-03-01T15:56:47;18.90;;;7.25;;
70715;SDS011;59053;50.832;12.882;2023-03-01T15:59:12;17.93;;;6.47;;
70715;SDS011;59053;50.832;12.882;2023-03-01T16:01:39;15.98;;;5.88;;
70715;SDS011;59053;50.832;12.882;2023-03-01T16:04:14;24.27;;;7.83;;
70715;SDS011;59053;50.832;12.882;2023-03-01T16:06:46;16.70;;;6.45;;
70715;SDS011;59053;50.832;12.882;2023-03-01T16:09:19;21.13;;;6.65;;
70715;SDS011;59053;50.832;12.882;2023-03-01T16:11:46;13.43;;;5.95;;
70715;SDS011;59053;50.832;12.882;2023-03-01T16:14:11;19.60;;;8.33;;
70715;SDS011;59053;50.832;12.882;2023-03-01T16:16:37;13.57;;;5.50;;
70715;SDS011;59053;50.832;12.882;2023-03-01T16:19:02;19.63;;;6.90;;
70715;SDS011;59053;50.832;12.882;2023-03-01T16:21:27;27.07;;;8.57;;
70715;SDS011;59053;50.832;12.882;2023-03-01T16:23:53;25.73;;;9.20;;
70715;SDS011;59053;50.832;12.882;2023-03-01T16:26:18;14.60;;;5.95;;
70715;SDS011;59053;50.832;12.882;2023-03-01T16:28:44;19.83;;;6.37;;
70715;SDS011;59053;50.832;12.882;2023-03-01T16:31:10;20.63;;;6.67;;
70715;SDS011;59053;50.832;12.882;2023-03-01T16:33:36;16.42;;;6.68;;
70715;SDS011;59053;50.832;12.882;2023-03-01T16:36:08;23.50;;;8.88;;
70715;SDS011;59053;50.832;12.882;2023-03-01T16:38:35;25.10;;;9.20;;
70715;SDS011;59053;50.832;12.882;2023-03-01T16:41:00;20.20;;;8.53;;
70715;SDS011;59053;50.832;12.882;2023-03-01T16:43:25;17.57;;;6.30;;
70715;SDS011;59053;50.832;12.882;2023-03-01T16:45:51;29.33;;;8.97;;
70715;SDS011;59053;50.832;12.882;2023-03-01T16:48:16;24.67;;;9.27;;
70715;SDS011;59053;50.832;12.882;2023-03-01T16:50:41;23.37;;;8.83;;
70715;SDS011;59053;50.832;12.882;2023-03-01T16:53:07;23.03;;;7.80;;
70715;SDS011;59053;50.832;12.882;2023-03-01T16:55:32;24.52;;;8.93;;
70715;SDS011;59053;50.832;12.882;2023-03-01T16:57:59;24.73;;;9.40;;
70715;SDS011;59053;50.832;12.882;2023-03-01T17:00:24;24.40;;;9.03;;
70715;SDS011;59053;50.832;12.882;2023-03-01T17:05:37;24.35;;;8.80;;
70715;SDS011;59053;50.832;12.882;2023-03-01T17:08:05;27.60;;;9.73;;
70715;SDS011;59053;50.832;12.882;2023-03-01T17:17:03;24.98;;;8.80;;
70715;SDS011;59053;50.832;12.882;2023-03-01T17:22:09;30.98;;;9.70;;
70715;SDS011;59053;50.832;12.882;2023-03-01T17:24:37;26.50;;;9.67;;
70715;SDS011;59053;50.832;12.882;2023-03-01T17:27:04;28.98;;;10.10;;
70715;SDS011;59053;50.832;12.882;2023-03-01T17:29:30;28.15;;;9.80;;
70715;SDS011;59053;50.832;12.882;2023-03-01T17:31:56;28.57;;;10.30;;
70715;SDS011;59053;50.832;12.882;2023-03-01T17:34:22;28.48;;;10.48;;
70715;SDS011;59053;50.832;12.882;2023-03-01T17:39:38;29.40;;;10.50;;
70715;SDS011;59053;50.832;12.882;2023-03-01T17:42:04;30.13;;;10.63;;
70715;SDS011;59053;50.832;12.882;2023-03-01T17:44:32;33.17;;;11.27;;
70715;SDS011;59053;50.832;12.882;2023-03-01T17:56:35;28.83;;;10.15;;
70715;SDS011;59053;50.832;12.882;2023-03-01T17:59:19;31.95;;;11.10;;
70715;SDS011;59053;50.832;12.882;2023-03-01T18:01:45;35.45;;;11.20;;
70715;SDS011;59053;50.832;12.882;2023-03-01T18:04:10;36.07;;;11.63;;
70715;SDS011;59053;50.832;12.882;2023-03-01T18:09:06;32.35;;;10.38;;
70715;SDS011;59053;50.832;12.882;2023-03-01T18:11:38;32.30;;;11.20;;
70715;SDS011;59053;50.832;12.882;2023-03-01T18:17:17;34.70;;;11.45;;
70715;SDS011;59053;50.832;12.882;2023-03-01T18:20:02;37.33;;;11.83;;
70715;SDS011;59053;50.832;12.882;2023-03-01T18:22:43;36.90;;;12.15;;
70715;SDS011;59053;50.832;12.882;2023-03-01T18:27:57;33.25;;;11.65;;
70715;SDS011;59053;50.832;12.882;2023-03-01T18:30:23;38.00;;;11.97;;
70715;SDS011;59053;50.832;12.882;2023-03-01T18:32:50;42.63;;;14.57;;
70715;SDS011;59053;50.832;12.882;2023-03-01T18:35:23;42.55;;;15.25;;
70715;SDS011;59053;50.832;12.882;2023-03-01T18:37:56;40.65;;;13.52;;
70715;SDS011;59053;50.832;12.882;2023-03-01T18:40:35;34.72;;;11.93;;
70715;SDS011;59053;50.832;12.882;2023-03-01T18:43:01;30.03;;;11.03;;
70715;SDS011;59053;50.832;12.882;2023-03-01T18:45:27;44.22;;;14.27;;
70715;SDS011;59053;50.832;12.882;2023-03-01T18:47:52;36.30;;;12.50;;
70715;SDS011;59053;50.832;12.882;2023-03-01T18:50:20;36.88;;;12.32;;
70715;SDS011;59053;50.832;12.882;2023-03-01T18:52:45;37.37;;;12.57;;
70715;SDS011;59053;50.832;12.882;2023-03-01T18:57:59;55.70;;;19.70;;
70715;SDS011;59053;50.832;12.882;2023-03-01T19:00:24;77.20;;;25.90;;
70715;SDS011;59053;50.832;12.882;2023-03-01T19:03:02;66.43;;;21.80;;
70715;SDS011;59053;50.832;12.882;2023-03-01T19:05:28;49.38;;;17.88;;
70715;SDS011;59053;50.832;12.882;2023-03-01T19:07:53;55.33;;;20.77;;
70715;SDS011;59053;50.832;12.882;2023-03-01T19:10:19;52.07;;;19.90;;
70715;SDS011;59053;50.832;12.882;2023-03-01T19:12:45;53.53;;;17.63;;
70715;SDS011;59053;50.832;12.882;2023-03-01T19:15:17;40.97;;;14.27;;
70715;SDS011;59053;50.832;12.882;2023-03-01T19:17:43;41.00;;;14.68;;
70715;SDS011;59053;50.832;12.882;2023-03-01T19:23:06;32.40;;;12.93;;
70715;SDS011;59053;50.832;12.882;2023-03-01T19:25:32;50.77;;;15.87;;
70715;SDS011;59053;50.832;12.882;2023-03-01T19:28:00;35.47;;;12.20;;
70715;SDS011;59053;50.832;12.882;2023-03-01T19:30:25;37.63;;;12.13;;
70715;SDS011;59053;50.832;12.882;2023-03-01T19:33:06;36.43;;;12.07;;
70715;SDS011;59053;50.832;12.882;2023-03-01T19:35:32;33.83;;;11.90;;
70715;SDS011;59053;50.832;12.882;2023-03-01T19:37:58;36.53;;;12.25;;
70715;SDS011;59053;50.832;12.882;2023-03-01T19:40:24;35.00;;;12.30;;
70715;SDS011;59053;50.832;12.882;2023-03-01T19:42:49;34.73;;;11.63;;
70715;SDS011;59053;50.832;12.882;2023-03-01T19:51:03;38.40;;;12.55;;
70715;SDS011;59053;50.832;12.882;2023-03-01T19:53:29;36.83;;;12.97;;
70715;SDS011;59053;50.832;12.882;2023-03-01T19:55:58;38.63;;;12.88;;
70715;SDS011;59053;50.832;12.882;2023-03-01T19:58:27;40.13;;;12.50;;
70715;SDS011;59053;50.832;12.882;2023-03-01T20:03:58;40.83;;;12.82;;
70715;SDS011;59053;50.832;12.882;2023-03-01T20:06:30;38.65;;;11.90;;
70715;SDS011;59053;50.832;12.882;2023-03-01T20:08:56;34.22;;;11.65;;
70715;SDS011;59053;50.832;12.882;2023-03-01T20:11:22;30.60;;;10.67;;
70715;SDS011;59053;50.832;12.882;2023-03-01T20:16:38;39.67;;;12.07;;
70715;SDS011;59053;50.832;12.882;2023-03-01T20:19:10;35.65;;;13.23;;
70715;SDS011;59053;50.832;12.882;2023-03-01T20:21:35;41.08;;;12.68;;
70715;SDS011;59053;50.832;12.882;2023-03-01T20:24:01;39.73;;;13.47;;
70715;SDS011;59053;50.832;12.882;2023-03-01T20:26:26;45.80;;;14.18;;
70715;SDS011;59053;50.832;12.882;2023-03-01T20:28:53;39.17;;;13.50;;
70715;SDS011;59053;50.832;12.882;2023-03-01T20:31:21;44.87;;;13.73;;
70715;SDS011;59053;50.832;12.882;2023-03-01T20:33:48;43.00;;;13.82;;
70715;SDS011;59053;50.832;12.882;2023-03-01T20:36:14;51.55;;;16.08;;
70715;SDS011;59053;50.832;12.882;2023-03-01T20:38:39;44.45;;;13.80;;
70715;SDS011;59053;50.832;12.882;2023-03-01T20:43:56;36.67;;;12.55;;
70715;SDS011;59053;50.832;12.882;2023-03-01T20:46:23;39.97;;;13.47;;
70715;SDS011;59053;50.832;12.882;2023-03-01T20:48:50;39.67;;;13.02;;
70715;SDS011;59053;50.832;12.882;2023-03-01T20:51:16;41.70;;;14.10;;
70715;SDS011;59053;50.832;12.882;2023-03-01T20:53:41;38.65;;;12.93;;
70715;SDS011;59053;50.832;12.882;2023-03-01T20:56:14;36.60;;;13.17;;
70715;SDS011;59053;50.832;12.882;2023-03-01T20:58:59;44.08;;;13.45;;
70715;SDS011;59053;50.832;12.882;2023-03-01T21:01:33;44.17;;;13.47;;
70715;SDS011;59053;50.832;12.882;2023-03-01T21:03:58;40.33;;;14.10;;
70715;SDS011;59053;50.832;12.882;2023-03-01T21:10:23;47.05;;;14.68;;
70715;SDS011;59053;50.832;12.882;2023-03-01T21:16:00;42.63;;;13.23;;
70715;SDS011;59053;50.832;12.882;2023-03-01T21:18:32;43.28;;;13.95;;
70715;SDS011;59053;50.832;12.882;2023-03-01T21:21:02;46.42;;;14.48;;
70715;SDS011;59053;50.832;12.882;2023-03-01T21:23:30;37.63;;;14.52;;
70715;SDS011;59053;50.832;12.882;2023-03-01T21:26:03;46.17;;;14.43;;
70715;SDS011;59053;50.832;12.882;2023-03-01T21:31:46;40.70;;;13.88;;
70715;SDS011;59053;50.832;12.882;2023-03-01T21:34:11;40.67;;;13.65;;
70715;SDS011;59053;50.832;12.882;2023-03-01T21:36:37;41.45;;;14.07;;
70715;SDS011;59053;50.832;12.882;2023-03-01T21:39:02;45.07;;;14.00;;
70715;SDS011;59053;50.832;12.882;2023-03-01T21:41:44;43.65;;;15.65;;
70715;SDS011;59053;50.832;12.882;2023-03-01T21:44:10;49.17;;;16.80;;
70715;SDS011;59053;50.832;12.882;2023-03-01T21:46:36;46.53;;;15.37;;
70715;SDS011;59053;50.832;12.882;2023-03-01T21:49:03;48.50;;;16.90;;
70715;SDS011;59053;50.832;12.882;2023-03-01T21:51:29;47.33;;;15.93;;
70715;SDS011;59053;50.832;12.882;2023-03-01T21:53:56;46.28;;;15.32;;
70715;SDS011;59053;50.832;12.882;2023-03-01T21:59:12;42.65;;;14.35;;
70715;SDS011;59053;50.832;12.882;2023-03-01T22:01:39;45.47;;;14.68;;
70715;SDS011;59053;50.832;12.882;2023-03-01T22:04:17;46.47;;;15.53;;
70715;SDS011;59053;50.832;12.882;2023-03-01T22:06:43;40.08;;;13.57;;
70715;SDS011;59053;50.832;12.882;2023-03-01T22:09:11;49.03;;;14.07;;
70715;SDS011;59053;50.832;12.882;2023-03-01T22:11:39;42.65;;;14.88;;
70715;SDS011;59053;50.832;12.882;2023-03-01T22:14:09;45.92;;;16.00;;
70715;SDS011;59053;50.832;12.882;2023-03-01T22:19:59;45.67;;;15.23;;
70715;SDS011;59053;50.832;12.882;2023-03-01T22:22:24;52.73;;;15.23;;
70715;SDS011;59053;50.832;12.882;2023-03-01T22:27:46;45.60;;;14.45;;
70715;SDS011;59053;50.832;12.882;2023-03-01T22:30:11;47.43;;;15.10;;
70715;SDS011;59053;50.832;12.882;2023-03-01T22:32:45;44.78;;;14.50;;
70715;SDS011;59053;50.832;12.882;2023-03-01T22:35:10;44.60;;;13.67;;
70715;SDS011;59053;50.832;12.882;2023-03-01T22:37:36;44.58;;;14.68;;
70715;SDS011;59053;50.832;12.882;2023-03-01T22:40:01;42.37;;;13.53;;
70715;SDS011;59053;50.832;12.882;2023-03-01T22:42:27;49.63;;;14.48;;
70715;SDS011;59053;50.832;12.882;2023-03-01T22:44:53;38.27;;;12.83;;
70715;SDS011;59053;50.832;12.882;2023-03-01T22:47:18;42.83;;;13.82;;
70715;SDS011;59053;50.832;12.882;2023-03-01T22:49:44;43.47;;;14.63;;
70715;SDS011;59053;50.832;12.882;2023-03-01T22:55:04;45.35;;;14.75;;
70715;SDS011;59053;50.832;12.882;2023-03-01T22:57:30;44.75;;;14.90;;
70715;SDS011;59053;50.832;12.882;2023-03-01T22:59:55;40.25;;;13.52;;
70715;SDS011;59053;50.832;12.882;2023-03-01T23:02:20;45.27;;;14.30;;
70715;SDS011;59053;50.832;12.882;2023-03-01T23:04:46;47.70;;;15.05;;
70715;SDS011;59053;50.832;12.882;2023-03-01T23:07:12;40.85;;;13.90;;
70715;SDS011;59053;50.832;12.882;2023-03-01T23:09:38;46.63;;;15.02;;